Kobuk Valley National Park, AK

12:10 AM AKDT op 27 maart 2015 (GMT -0800)
Baker Memorial | | Change Station
CLOSE
Current Station
Luchthaven
Location: Kiana,
Geometrische hoogte: 151 ft
Nabije weerstations

Hoogte 151 ft 66.98 °N, 160.44 °W | Updated 9 minutes ago

Clear
Helder
0 °F
Voelt als -8 °F
N
4
Wind Variabel Wind van ZZW

Vandaag
Hoog -- | Laag -- °F
--% Kans op neerslag
Gisteren
Hoog -- | Laag -- °F
Precip. -- inches
8:12 AM 9:23 PM
Wassende halvemaan, 50% visible
Druk 29.67 inches
Zicht 10.0 mijlen
Wolken Helder
Gevoelstemperatuur -8 °F
Dauwpunt -4 °F
Vochtigheid 83%
Neerslag 0.00 inches
Dikte sneeuw Niet beschikbaar.
UV 0 van de 12
Pollen Niet beschikbaar.
Luchtkwaliteit Niet beschikbaar.
Flu Activity Niet beschikbaar.
METAR PAIK 270801Z AUTO 21003KT 10SM CLR M18/M20 A2953 RMK AO2 SLP046 T11781200 FZRANO

More Conditions Fewer Conditions

Druk 29.67 inches
Zicht 10.0 mijlen
Wolken Helder
Gevoelstemperatuur -8 °F
Dauwpunt -4 °F
Vochtigheid 83%
Neerslag 0.00 inches
Dikte sneeuw Niet beschikbaar.
UV 0 van de 12
Pollen Niet beschikbaar.
Luchtkwaliteit Niet beschikbaar.
Flu Activity Niet beschikbaar.
METAR PAIK 270801Z AUTO 21003KT 10SM CLR M18/M20 A2953 RMK AO2 SLP046 T11781200 FZRANO

More Conditions Fewer Conditions

10-Day Weather Forecast

Almanac

Astronomie

Mar. 27, 2015 Opkomst Ondergang
Werkelijke tijd
Burgerlijke schemering
Nautische schemering
Astronomische schemering
Maan
Golflengte van het zichtbare licht
Daglengte
Tomorrow will be .
, % of the Moon is Illuminated

Extremen vandaag

State Highs State Lows

Community

WunderPhotos

Upload Photos

1,808,705 foto’s ge-upload!

WunderBlogs® & News

Nearby

Luchtkwaliteit

  Luchtkwaliteit LK-index Verontreinigende stof
Not available.

Dikte sneeuw

Station Depth Geometrische hoogte

Aardbevingen

Stad Distance Mag. Time & Date
Minimum magnitude displayed is 2.5.

Watertemperatuur langs de kust

Plaats Temperatuur

Stations

Nabije weerstations

Locatie station Temp. Gevoelstemperatuur Dauwpunt Vochtigheid Wind Precip. Hoogte Geactualiseerd Type